createdAt,value
2022-10-17T00:02:13.433Z,98138.91
2022-10-17T00:04:40.024Z,98143.50
2022-10-17T00:07:06.599Z,98147.38
2022-10-17T00:09:33.164Z,98150.34
2022-10-17T00:11:59.733Z,98156.97
2022-10-17T00:14:27.695Z,98143.84
2022-10-17T00:16:54.255Z,98150.63
2022-10-17T00:19:20.811Z,98149.28
2022-10-17T00:21:49.372Z,98151.00
2022-10-17T00:24:15.930Z,98151.75
2022-10-17T00:26:42.563Z,98163.13
2022-10-17T00:29:09.301Z,98162.91
2022-10-17T00:31:37.302Z,98162.84
2022-10-17T00:34:03.852Z,98155.75
2022-10-17T00:36:30.388Z,98160.59
2022-10-17T00:38:58.851Z,98165.31
2022-10-17T00:41:27.771Z,98173.41
2022-10-17T00:43:57.682Z,98173.47
2022-10-17T00:46:26.595Z,98170.34
2022-10-17T00:48:56.815Z,98165.13
2022-10-17T00:51:29.224Z,98177.38
2022-10-17T00:53:56.331Z,98169.44
2022-10-17T00:56:23.237Z,98173.56
2022-10-17T00:58:49.931Z,98169.44
2022-10-17T01:01:16.788Z,98174.97
2022-10-17T01:03:43.749Z,98172.53
2022-10-17T01:06:11.667Z,98174.56
2022-10-17T01:08:38.547Z,98170.44
2022-10-17T01:11:20.497Z,98180.16
2022-10-17T01:13:51.968Z,98181.06
2022-10-17T01:16:26.564Z,98175.66
2022-10-17T01:19:02.830Z,98173.09
2022-10-17T01:21:39.051Z,98176.19
2022-10-17T01:24:40.789Z,98173.22
2022-10-17T01:27:39.847Z,98177.19
2022-10-17T01:30:32.424Z,98171.31
2022-10-17T01:33:05.368Z,98175.28
2022-10-17T01:35:39.670Z,98179.25
2022-10-17T01:38:10.659Z,98171.53
2022-10-17T01:40:42.630Z,98173.00
2022-10-17T01:43:13.782Z,98176.75
2022-10-17T01:45:45.079Z,98168.00
2022-10-17T01:48:17.519Z,98163.59
2022-10-17T01:50:49.074Z,98159.91
2022-10-17T01:53:20.102Z,98167.84
2022-10-17T01:55:50.131Z,98162.31
2022-10-17T01:58:21.924Z,98168.91
2022-10-17T02:00:50.285Z,98170.34
2022-10-17T02:03:20.958Z,98166.28
2022-10-17T02:05:47.513Z,98174.41
2022-10-17T02:08:14.215Z,98167.00
2022-10-17T02:10:48.652Z,98172.53
2022-10-17T02:13:25.884Z,98172.28
2022-10-17T02:16:16.659Z,98172.38
2022-10-17T02:19:08.603Z,98169.88
2022-10-17T02:21:45.054Z,98164.28
2022-10-17T02:24:18.518Z,98161.47
2022-10-17T02:26:52.044Z,98170.00
2022-10-17T02:29:22.366Z,98164.25
2022-10-17T02:31:51.965Z,98163.97
2022-10-17T02:34:25.314Z,98168.16
2022-10-17T02:36:57.819Z,98161.53
2022-10-17T02:39:25.989Z,98165.47
2022-10-17T02:41:56.577Z,98173.28
2022-10-17T02:44:24.698Z,98169.34
2022-10-17T02:46:55.331Z,98169.34
2022-10-17T02:49:28.058Z,98173.28
2022-10-17T02:52:01.959Z,98178.00
2022-10-17T02:54:36.076Z,98169.16
2022-10-17T02:57:08.703Z,98173.41
2022-10-17T02:59:36.867Z,98176.19
2022-10-17T03:02:04.379Z,98176.19
2022-10-17T03:04:32.803Z,98177.28
2022-10-17T03:06:59.382Z,98175.09
2022-10-17T03:09:25.941Z,98179.00
2022-10-17T03:11:52.503Z,98182.53
2022-10-17T03:14:19.036Z,98181.22
2022-10-17T03:16:45.719Z,98182.69
2022-10-17T03:19:12.240Z,98178.50
2022-10-17T03:21:40.118Z,98179.59
2022-10-17T03:24:07.349Z,98188.19
2022-10-17T03:26:34.107Z,98179.41
2022-10-17T03:29:00.750Z,98189.69
2022-10-17T03:31:27.295Z,98188.03
2022-10-17T03:33:53.828Z,98192.75
2022-10-17T03:36:20.375Z,98183.63
2022-10-17T03:38:48.474Z,98191.88
2022-10-17T03:41:14.988Z,98190.00
2022-10-17T03:43:41.535Z,98191.41
2022-10-17T03:46:08.254Z,98195.31
2022-10-17T03:48:34.870Z,98192.50
2022-10-17T03:51:03.743Z,98204.75
2022-10-17T03:53:30.291Z,98206.69
2022-10-17T03:56:09.023Z,98218.69
2022-10-17T03:58:35.589Z,98216.75
2022-10-17T04:01:04.306Z,98214.22
2022-10-17T04:03:30.956Z,98221.13
2022-10-17T04:05:58.551Z,98215.88
2022-10-17T04:08:25.124Z,98220.03
2022-10-17T04:10:51.687Z,98220.03
2022-10-17T04:13:19.550Z,98221.69
2022-10-17T04:15:54.170Z,98222.72
2022-10-17T04:18:20.698Z,98234.63
2022-10-17T04:20:47.222Z,98233.94
2022-10-17T04:23:13.785Z,98227.88
2022-10-17T04:25:40.321Z,98240.50
2022-10-17T04:28:06.969Z,98234.53
2022-10-17T04:30:34.838Z,98233.41
2022-10-17T04:33:01.393Z,98236.13
2022-10-17T04:35:28.039Z,98232.91
2022-10-17T04:37:54.581Z,98238.47
2022-10-17T04:40:21.384Z,98234.84
2022-10-17T04:42:48.023Z,98234.63
2022-10-17T04:45:14.675Z,98240.16
2022-10-17T04:47:42.551Z,98240.41
2022-10-17T04:50:09.498Z,98243.72
2022-10-17T04:52:36.202Z,98243.44
2022-10-17T04:55:02.882Z,98242.91
2022-10-17T04:57:29.464Z,98244.22
2022-10-17T04:59:56.013Z,98240.84
2022-10-17T05:02:22.610Z,98237.47
2022-10-17T05:04:50.493Z,98231.09
2022-10-17T05:07:17.050Z,98231.41
2022-10-17T05:09:43.605Z,98235.00
2022-10-17T05:12:10.525Z,98234.50
2022-10-17T05:14:37.119Z,98241.78
2022-10-17T05:17:03.687Z,98240.75
2022-10-17T05:19:30.239Z,98239.69
2022-10-17T05:21:58.127Z,98250.78
2022-10-17T05:24:24.640Z,98249.75
2022-10-17T05:26:51.153Z,98248.94
2022-10-17T05:29:17.881Z,98258.84
2022-10-17T05:31:44.464Z,98258.84
2022-10-17T05:34:13.176Z,98257.16
2022-10-17T05:36:40.540Z,98264.59
2022-10-17T05:39:08.421Z,98272.34
2022-10-17T05:41:34.978Z,98275.34
2022-10-17T05:44:04.628Z,98268.94
2022-10-17T05:46:32.223Z,98277.25
2022-10-17T05:48:58.749Z,98275.28
2022-10-17T05:51:25.306Z,98284.34
2022-10-17T05:53:51.827Z,98275.75
2022-10-17T05:56:19.692Z,98280.97
2022-10-17T05:58:51.614Z,98284.81
2022-10-17T06:01:19.867Z,98279.00
2022-10-17T06:03:46.442Z,98280.13
2022-10-17T06:06:14.577Z,98286.47
2022-10-17T06:08:41.427Z,98290.72
2022-10-17T06:11:10.223Z,98286.88
2022-10-17T06:13:39.517Z,98298.75
2022-10-17T06:16:06.834Z,98304.84
2022-10-17T06:18:33.640Z,98307.41
2022-10-17T06:21:03.113Z,98313.75
2022-10-17T06:23:29.679Z,98306.59
2022-10-17T06:25:58.885Z,98310.41
2022-10-17T06:28:25.484Z,98313.69
2022-10-17T06:30:53.417Z,98315.25
2022-10-17T06:33:20.088Z,98308.56
2022-10-17T06:35:51.156Z,98317.38
2022-10-17T06:38:17.689Z,98316.28
2022-10-17T06:40:44.249Z,98320.09
2022-10-17T06:43:10.775Z,98315.97
2022-10-17T06:45:38.428Z,98315.69
2022-10-17T06:48:06.498Z,98321.22
2022-10-17T06:50:33.062Z,98319.84
2022-10-17T06:52:59.651Z,98316.16
2022-10-17T06:55:26.188Z,98328.00
2022-10-17T06:57:56.395Z,98322.16
2022-10-17T07:00:22.963Z,98322.16
2022-10-17T07:02:49.734Z,98326.28
2022-10-17T07:05:17.880Z,98319.34
2022-10-17T07:07:45.632Z,98322.63
2022-10-17T07:10:14.291Z,98329.25
2022-10-17T07:12:40.799Z,98338.13
2022-10-17T07:15:08.158Z,98330.75
2022-10-17T07:17:34.699Z,98331.88
2022-10-17T07:20:01.244Z,98332.44
2022-10-17T07:22:29.262Z,98337.97
2022-10-17T07:24:55.972Z,98333.53
2022-10-17T07:27:22.554Z,98340.50
2022-10-17T07:29:49.075Z,98343.25
2022-10-17T07:32:15.615Z,98340.16
2022-10-17T07:34:42.129Z,98348.69
2022-10-17T07:37:08.652Z,98354.94
2022-10-17T07:39:36.518Z,98352.78
2022-10-17T07:42:03.020Z,98351.25
2022-10-17T07:44:29.531Z,98357.16
2022-10-17T07:46:56.049Z,98360.09
2022-10-17T07:49:22.593Z,98362.22
2022-10-17T07:51:49.103Z,98352.66
2022-10-17T07:54:15.678Z,98356.50
2022-10-17T07:56:43.552Z,98353.97
2022-10-17T07:59:10.086Z,98357.34
2022-10-17T08:01:36.788Z,98361.66
2022-10-17T08:04:03.320Z,98353.97
2022-10-17T08:06:29.842Z,98357.59
2022-10-17T08:08:56.383Z,98362.59
2022-10-17T08:11:22.914Z,98357.69
2022-10-17T08:13:50.791Z,98367.09
2022-10-17T08:16:17.286Z,98368.63
2022-10-17T08:18:44.088Z,98363.91
2022-10-17T08:21:12.047Z,98365.91
2022-10-17T08:23:38.655Z,98370.16
2022-10-17T08:26:07.186Z,98360.69
2022-10-17T08:28:35.390Z,98355.84
2022-10-17T08:31:05.046Z,98362.84
2022-10-17T08:33:31.763Z,98356.97
2022-10-17T08:35:58.847Z,98346.16
2022-10-17T08:38:27.796Z,98355.25
2022-10-17T08:40:57.613Z,98342.72
2022-10-17T08:43:48.254Z,98344.16
2022-10-17T08:46:16.863Z,98352.31
2022-10-17T08:48:46.696Z,98352.31
2022-10-17T08:51:18.116Z,98348.03
2022-10-17T08:53:49.592Z,98348.19
2022-10-17T08:56:24.917Z,98342.03
2022-10-17T08:59:05.263Z,98340.56
2022-10-17T09:01:42.000Z,98340.94
2022-10-17T09:04:38.336Z,98337.81
2022-10-17T09:07:13.310Z,98340.78
2022-10-17T09:09:50.751Z,98346.19
2022-10-17T09:12:22.034Z,98336.50
2022-10-17T09:15:08.307Z,98335.72
2022-10-17T09:17:46.369Z,98336.25
2022-10-17T09:20:17.503Z,98328.69
2022-10-17T09:22:50.151Z,98337.78
2022-10-17T09:25:19.560Z,98339.63
2022-10-17T09:27:49.216Z,98334.91
2022-10-17T09:30:44.276Z,98333.94
2022-10-17T09:33:28.177Z,98338.53
2022-10-17T09:36:03.997Z,98340.50
2022-10-17T09:38:39.421Z,98334.09
2022-10-17T09:41:39.222Z,98339.69
2022-10-17T09:44:13.781Z,98347.56
2022-10-17T09:46:40.577Z,98342.97
2022-10-17T09:49:16.515Z,98342.16
2022-10-17T09:51:44.520Z,98342.31
2022-10-17T09:54:20.376Z,98338.53
2022-10-17T09:57:01.644Z,98339.66
2022-10-17T09:59:33.958Z,98338.03
2022-10-17T10:02:17.009Z,98348.19
2022-10-17T10:05:04.142Z,98347.88
2022-10-17T10:07:34.085Z,98351.81
2022-10-17T10:10:01.320Z,98355.25
2022-10-17T10:12:30.827Z,98351.28
2022-10-17T10:14:58.497Z,98356.03
2022-10-17T10:17:29.085Z,98350.94
2022-10-17T10:19:56.951Z,98346.78
2022-10-17T10:22:23.491Z,98352.88
2022-10-17T10:25:07.812Z,98352.56
2022-10-17T10:27:35.099Z,98351.69
2022-10-17T10:30:02.454Z,98353.66
2022-10-17T10:32:32.196Z,98351.50
2022-10-17T10:35:05.895Z,98351.53
2022-10-17T10:37:37.435Z,98355.75
2022-10-17T10:40:06.620Z,98353.53
2022-10-17T10:42:35.795Z,98350.19
2022-10-17T10:45:05.035Z,98341.28
2022-10-17T10:47:33.002Z,98343.25
2022-10-17T10:50:24.624Z,98339.59
2022-10-17T10:53:02.504Z,98336.59
2022-10-17T10:55:34.245Z,98333.63
2022-10-17T10:58:03.371Z,98340.03
2022-10-17T11:00:33.940Z,98341.22
2022-10-17T11:03:12.595Z,98340.84
2022-10-17T11:05:44.682Z,98338.28
2022-10-17T11:08:15.023Z,98339.91
2022-10-17T11:10:49.310Z,98343.91
2022-10-17T11:13:21.787Z,98342.72
2022-10-17T11:15:53.513Z,98341.22
2022-10-17T11:18:22.589Z,98341.22
2022-10-17T11:20:53.655Z,98335.13
2022-10-17T11:23:27.930Z,98334.94
2022-10-17T11:25:57.032Z,98328.88
2022-10-17T11:28:25.318Z,98327.69
2022-10-17T11:30:56.158Z,98320.09
2022-10-17T11:33:28.788Z,98323.31
2022-10-17T11:36:02.415Z,98322.22
2022-10-17T11:38:39.711Z,98319.22
2022-10-17T11:41:09.301Z,98321.47
2022-10-17T11:43:40.701Z,98326.25
2022-10-17T11:46:15.290Z,98320.16
2022-10-17T11:48:48.722Z,98317.34
2022-10-17T11:54:11.079Z,98318.28
2022-10-17T11:56:44.210Z,98319.97
2022-10-17T11:59:36.187Z,98316.59
2022-10-17T12:02:05.259Z,98321.59
2022-10-17T12:04:49.422Z,98314.16
2022-10-17T12:07:25.732Z,98311.81
2022-10-17T12:09:57.762Z,98309.16
2022-10-17T12:12:26.198Z,98310.81
2022-10-17T12:14:53.524Z,98301.78
2022-10-17T12:17:29.458Z,98308.00
2022-10-17T12:20:25.899Z,98296.16
2022-10-17T12:22:55.643Z,98292.88
2022-10-17T12:25:24.198Z,98295.84
2022-10-17T12:27:51.690Z,98292.19
2022-10-17T12:30:24.637Z,98299.66
2022-10-17T12:33:17.269Z,98291.44
2022-10-17T12:35:43.802Z,98296.84
2022-10-17T12:38:29.561Z,98289.06
2022-10-17T12:41:04.681Z,98291.09
2022-10-17T12:43:40.593Z,98288.78
2022-10-17T12:46:11.499Z,98277.56
2022-10-17T12:49:02.327Z,98286.50
2022-10-17T12:51:37.652Z,98283.50
2022-10-17T12:54:12.543Z,98285.00
2022-10-17T12:56:40.432Z,98283.38
2022-10-17T12:59:13.044Z,98280.28
2022-10-17T13:01:40.398Z,98287.88
2022-10-17T13:04:10.564Z,98289.00
2022-10-17T13:06:44.161Z,98291.44
2022-10-17T13:09:22.662Z,98289.47
2022-10-17T13:11:49.766Z,98291.13
2022-10-17T13:14:18.893Z,98294.25
2022-10-17T13:16:51.768Z,98292.28
2022-10-17T13:19:20.626Z,98287.59
2022-10-17T13:21:50.762Z,98287.41
2022-10-17T13:24:23.647Z,98283.25
2022-10-17T13:26:50.172Z,98285.44
2022-10-17T13:29:16.740Z,98286.28
2022-10-17T13:31:44.733Z,98290.03
2022-10-17T13:34:17.790Z,98300.06
2022-10-17T13:36:48.819Z,98293.13
2022-10-17T13:39:23.036Z,98295.84
2022-10-17T13:41:56.594Z,98299.91
2022-10-17T13:44:25.609Z,98293.84
2022-10-17T13:46:52.768Z,98299.47
2022-10-17T13:49:25.920Z,98306.69
2022-10-17T13:51:55.984Z,98304.88
2022-10-17T13:54:34.042Z,98308.00
2022-10-17T13:57:03.404Z,98307.66
2022-10-17T13:59:38.511Z,98299.63
2022-10-17T14:02:06.096Z,98299.63
2022-10-17T14:04:56.597Z,98304.56
2022-10-17T14:07:26.603Z,98301.81
2022-10-17T14:09:53.789Z,98302.25
2022-10-17T14:12:22.763Z,98305.81
2022-10-17T14:15:09.650Z,98309.44
2022-10-17T14:17:36.604Z,98308.28
2022-10-17T14:20:26.515Z,98303.13
2022-10-17T14:23:17.478Z,98305.72
2022-10-17T14:25:40.584Z,98307.59
2022-10-17T14:28:15.106Z,98311.41
2022-10-17T14:30:58.591Z,98305.69
2022-10-17T14:33:28.158Z,98315.41
2022-10-17T14:35:57.811Z,98312.50
2022-10-17T14:38:25.209Z,98305.75
2022-10-17T14:41:00.357Z,98314.63
2022-10-17T14:43:37.672Z,98311.81
2022-10-17T14:46:04.486Z,98309.69
2022-10-17T14:48:31.130Z,98324.28
2022-10-17T14:51:12.553Z,98324.28
2022-10-17T14:53:40.196Z,98322.28
2022-10-17T14:56:23.166Z,98322.84
2022-10-17T14:58:51.062Z,98328.63
2022-10-17T15:01:17.864Z,98320.56
2022-10-17T15:03:44.490Z,98330.81
2022-10-17T15:06:18.173Z,98330.19
2022-10-17T15:08:44.701Z,98333.66
2022-10-17T15:11:11.839Z,98334.69
2022-10-17T15:13:43.303Z,98329.47
2022-10-17T15:16:18.124Z,98329.34
2022-10-17T15:18:44.653Z,98326.59
2022-10-17T15:21:33.694Z,98336.50
2022-10-17T15:23:59.313Z,98338.22
2022-10-17T15:26:29.926Z,98334.78
2022-10-17T15:28:56.512Z,98337.44
2022-10-17T15:31:26.228Z,98339.28
2022-10-17T15:33:53.502Z,98345.41
2022-10-17T15:36:22.657Z,98342.28
2022-10-17T15:38:50.366Z,98349.69
2022-10-17T15:41:16.872Z,98355.63
2022-10-17T15:43:43.603Z,98349.38
2022-10-17T15:46:13.254Z,98353.16
2022-10-17T15:48:41.769Z,98356.13
2022-10-17T15:51:09.002Z,98368.28
2022-10-17T15:53:35.837Z,98378.66
2022-10-17T15:56:03.013Z,98374.69
2022-10-17T15:58:35.679Z,98377.72
2022-10-17T16:01:03.299Z,98378.53
2022-10-17T16:03:29.921Z,98382.34
2022-10-17T16:05:57.900Z,98390.06
2022-10-17T16:08:24.453Z,98385.97
2022-10-17T16:10:51.773Z,98386.56
2022-10-17T16:13:20.742Z,98396.38
2022-10-17T16:15:47.297Z,98395.25
2022-10-17T16:18:14.199Z,98399.91
2022-10-17T16:20:40.962Z,98402.59
2022-10-17T16:23:12.490Z,98392.13
2022-10-17T16:25:39.080Z,98398.84
2022-10-17T16:28:05.724Z,98398.47
2022-10-17T16:30:32.681Z,98389.03
2022-10-17T16:32:59.449Z,98395.00
2022-10-17T16:35:31.843Z,98390.59
2022-10-17T16:38:01.550Z,98390.69
2022-10-17T16:40:29.408Z,98385.16
2022-10-17T16:42:55.947Z,98391.69
2022-10-17T16:45:23.397Z,98392.59
2022-10-17T16:47:50.135Z,98392.41
2022-10-17T16:50:16.947Z,98391.59
2022-10-17T16:52:43.495Z,98404.00
2022-10-17T16:55:10.508Z,98397.00
2022-10-17T16:57:38.455Z,98400.16
2022-10-17T17:00:07.129Z,98406.56
2022-10-17T17:02:33.983Z,98408.38
2022-10-17T17:05:00.721Z,98402.94
2022-10-17T17:07:27.580Z,98403.13
2022-10-17T17:09:54.229Z,98404.34
2022-10-17T17:12:20.722Z,98411.06
2022-10-17T17:14:48.602Z,98407.13
2022-10-17T17:17:24.462Z,98405.47
2022-10-17T17:20:01.672Z,98408.88
2022-10-17T17:22:28.205Z,98409.47
2022-10-17T17:24:54.742Z,98407.28
2022-10-17T17:27:21.280Z,98405.72
2022-10-17T17:29:49.131Z,98409.03
2022-10-17T17:32:15.642Z,98414.59
2022-10-17T17:34:42.186Z,98412.97
2022-10-17T17:37:08.719Z,98411.63
2022-10-17T17:39:35.275Z,98410.56
2022-10-17T17:42:01.808Z,98410.19
2022-10-17T17:44:28.450Z,98413.13
2022-10-17T17:46:56.303Z,98417.66
2022-10-17T17:49:22.847Z,98413.09
2022-10-17T17:51:49.429Z,98409.28
2022-10-17T17:54:16.076Z,98410.25
2022-10-17T17:56:42.768Z,98413.13
2022-10-17T17:59:11.474Z,98425.56
2022-10-17T18:01:38.175Z,98417.22
2022-10-17T18:04:08.050Z,98414.91
2022-10-17T18:06:35.281Z,98417.94
2022-10-17T18:09:02.151Z,98411.53
2022-10-17T18:11:29.275Z,98413.34
2022-10-17T18:13:56.867Z,98416.94
2022-10-17T18:16:23.495Z,98420.03
2022-10-17T18:18:50.013Z,98422.44
2022-10-17T18:21:17.910Z,98428.59
2022-10-17T18:23:46.478Z,98425.28
2022-10-17T18:26:13.599Z,98434.75
2022-10-17T18:31:14.952Z,98435.72
2022-10-17T18:33:41.880Z,98438.16
2022-10-17T18:36:12.250Z,98436.88
2022-10-17T18:38:40.260Z,98440.78
2022-10-17T18:41:08.705Z,98439.97
2022-10-17T18:43:36.088Z,98448.44
2022-10-17T18:46:04.591Z,98448.88
2022-10-17T18:48:32.183Z,98438.38
2022-10-17T18:50:58.999Z,98443.31
2022-10-17T18:53:25.676Z,98441.69
2022-10-17T18:55:53.678Z,98439.84
2022-10-17T18:58:20.210Z,98439.25
2022-10-17T19:00:47.053Z,98447.06
2022-10-17T19:03:14.840Z,98446.75
2022-10-17T19:05:42.008Z,98448.72
2022-10-17T19:08:08.522Z,98453.66
2022-10-17T19:10:35.208Z,98459.28
2022-10-17T19:13:03.432Z,98453.50
2022-10-17T19:15:30.014Z,98457.16
2022-10-17T19:17:56.519Z,98457.16
2022-10-17T19:20:23.043Z,98457.22
2022-10-17T19:22:49.614Z,98456.31
2022-10-17T19:25:16.209Z,98461.66
2022-10-17T19:27:42.777Z,98466.06
2022-10-17T19:30:11.560Z,98454.97
2022-10-17T19:32:38.226Z,98462.88
2022-10-17T19:35:05.750Z,98462.94
2022-10-17T19:37:32.599Z,98458.56
2022-10-17T19:39:59.275Z,98460.25
2022-10-17T19:42:25.782Z,98466.03
2022-10-17T19:44:52.339Z,98471.56
2022-10-17T19:47:20.213Z,98487.44
2022-10-17T19:49:50.025Z,98486.56
2022-10-17T19:52:16.742Z,98490.22
2022-10-17T19:54:43.308Z,98499.09
2022-10-17T19:57:10.630Z,98491.28
2022-10-17T19:59:37.306Z,98499.31
2022-10-17T20:02:03.894Z,98485.84
2022-10-17T20:04:31.863Z,98489.50
2022-10-17T20:06:58.559Z,98489.94
2022-10-17T20:09:25.342Z,98482.69
2022-10-17T20:11:51.922Z,98486.00
2022-10-17T20:14:18.442Z,98486.56
2022-10-17T20:16:44.984Z,98487.97
2022-10-17T20:19:13.178Z,98488.38
2022-10-17T20:21:42.581Z,98487.91
2022-10-17T20:24:11.814Z,98489.81
2022-10-17T20:26:39.663Z,98492.34
2022-10-17T20:29:11.106Z,98490.13
2022-10-17T20:31:38.144Z,98486.72
2022-10-17T20:34:04.683Z,98489.31
2022-10-17T20:36:31.207Z,98490.72
2022-10-17T20:38:59.378Z,98499.31
2022-10-17T20:41:26.603Z,98505.13
2022-10-17T20:43:54.588Z,98509.19
2022-10-17T20:46:35.163Z,98505.59
2022-10-17T20:49:02.857Z,98507.31
2022-10-17T20:51:29.557Z,98508.19
2022-10-17T20:56:29.946Z,98498.19
2022-10-17T20:58:58.857Z,98500.97
2022-10-17T21:01:26.707Z,98502.94
2022-10-17T21:03:53.651Z,98500.44
2022-10-17T21:06:20.862Z,98506.53
2022-10-17T21:08:47.862Z,98498.47
2022-10-17T21:11:16.094Z,98510.66
2022-10-17T21:13:45.104Z,98503.75
2022-10-17T21:16:13.086Z,98506.56
2022-10-17T21:18:40.424Z,98496.38
2022-10-17T21:21:08.840Z,98495.03
2022-10-17T21:23:35.616Z,98494.19
2022-10-17T21:26:02.156Z,98495.28
2022-10-17T21:28:28.702Z,98494.72
2022-10-17T21:31:07.017Z,98485.38
2022-10-17T21:33:33.528Z,98487.91
2022-10-17T21:36:00.103Z,98487.59
2022-10-17T21:38:26.625Z,98485.97
2022-10-17T21:40:55.372Z,98489.31
2022-10-17T21:43:22.946Z,98489.09
2022-10-17T21:45:49.471Z,98491.03
2022-10-17T21:48:17.503Z,98493.22
2022-10-17T21:50:44.052Z,98490.75
2022-10-17T21:53:10.555Z,98496.94
2022-10-17T21:55:37.276Z,98499.41
2022-10-17T21:58:04.517Z,98501.00
2022-10-17T22:00:31.137Z,98506.56
2022-10-17T22:02:57.658Z,98501.56
2022-10-17T22:05:25.564Z,98511.22
2022-10-17T22:07:52.082Z,98508.38
2022-10-17T22:10:18.617Z,98513.41
2022-10-17T22:12:45.157Z,98520.25
2022-10-17T22:15:11.722Z,98522.44
2022-10-17T22:17:38.282Z,98529.44
2022-10-17T22:20:05.553Z,98524.41
2022-10-17T22:22:33.423Z,98528.25
2022-10-17T22:24:59.937Z,98520.16
2022-10-17T22:27:26.507Z,98530.69
2022-10-17T22:29:53.071Z,98523.53
2022-10-17T22:32:22.382Z,98527.38
2022-10-17T22:34:49.418Z,98520.19
2022-10-17T22:37:15.947Z,98520.19
2022-10-17T22:39:43.806Z,98513.06
2022-10-17T22:42:10.374Z,98512.53
2022-10-17T22:44:36.968Z,98498.50
2022-10-17T22:47:03.646Z,98496.03
2022-10-17T22:49:30.184Z,98499.59
2022-10-17T22:51:56.676Z,98492.69
2022-10-17T22:54:23.199Z,98495.69
2022-10-17T22:56:51.099Z,98485.53
2022-10-17T22:59:17.869Z,98497.16
2022-10-17T23:01:44.437Z,98486.16
2022-10-17T23:04:10.959Z,98492.25
2022-10-17T23:06:37.478Z,98482.00
2022-10-17T23:09:04.027Z,98477.28
2022-10-17T23:11:30.584Z,98478.72
2022-10-17T23:13:58.466Z,98475.66
2022-10-17T23:16:25.019Z,98483.72
2022-10-17T23:18:51.544Z,98475.44
2022-10-17T23:21:18.123Z,98471.81
2022-10-17T23:23:44.663Z,98476.47
2022-10-17T23:26:14.180Z,98469.28
2022-10-17T23:28:41.787Z,98469.63
2022-10-17T23:31:11.460Z,98467.97
2022-10-17T23:33:38.002Z,98464.69
2022-10-17T23:36:04.855Z,98466.09
2022-10-17T23:38:31.388Z,98461.94
2022-10-17T23:40:57.955Z,98461.94
2022-10-17T23:43:24.489Z,98464.16
2022-10-17T23:45:51.033Z,98468.63
2022-10-17T23:48:18.929Z,98482.72
2022-10-17T23:50:45.482Z,98479.44
2022-10-17T23:53:12.019Z,98484.44
2022-10-17T23:55:38.589Z,98485.56
2022-10-17T23:58:05.155Z,98484.44
